createdAt,value
2019-03-26T00:02:21.353Z,15.90
2019-03-26T00:05:01.354Z,13.20
2019-03-26T00:07:41.246Z,14.53
2019-03-26T00:10:21.404Z,17.60
2019-03-26T00:13:01.485Z,14.40
2019-03-26T00:15:41.296Z,17.07
2019-03-26T00:18:21.401Z,14.13
2019-03-26T00:21:01.646Z,12.10
2019-03-26T00:23:41.549Z,15.60
2019-03-26T00:26:21.637Z,15.87
2019-03-26T00:29:01.771Z,14.87
2019-03-26T00:31:41.852Z,12.70
2019-03-26T00:34:21.785Z,15.77
2019-03-26T00:37:01.770Z,18.03
2019-03-26T00:39:41.603Z,15.13
2019-03-26T00:42:21.680Z,13.83
2019-03-26T00:45:01.738Z,12.53
2019-03-26T00:47:41.804Z,12.67
2019-03-26T00:50:21.896Z,8.30
2019-03-26T00:53:02.062Z,16.07
2019-03-26T00:55:41.938Z,12.23
2019-03-26T00:58:21.938Z,12.50
2019-03-26T01:01:02.185Z,11.60
2019-03-26T01:03:42.513Z,14.83
2019-03-26T01:06:22.546Z,13.30
2019-03-26T01:09:02.772Z,10.27
2019-03-26T01:11:42.670Z,14.80
2019-03-26T01:14:22.693Z,8.33
2019-03-26T01:17:02.736Z,9.47
2019-03-26T01:19:42.764Z,9.90
2019-03-26T01:22:23.156Z,12.53
2019-03-26T01:25:03.243Z,14.43
2019-03-26T01:27:43.165Z,17.40
2019-03-26T01:30:23.220Z,12.20
2019-03-26T01:33:03.261Z,16.93
2019-03-26T01:35:43.328Z,13.30
2019-03-26T01:38:23.338Z,11.10
2019-03-26T01:41:03.661Z,17.87
2019-03-26T01:43:43.830Z,10.73
2019-03-26T01:46:24.089Z,14.37
2019-03-26T01:49:04.056Z,14.30
2019-03-26T01:51:44.025Z,13.27
2019-03-26T01:54:24.077Z,11.77
2019-03-26T01:57:03.985Z,11.30
2019-03-26T01:59:43.764Z,11.43
2019-03-26T02:02:24.072Z,12.10
2019-03-26T02:05:03.910Z,9.50
2019-03-26T02:07:43.997Z,20.77
2019-03-26T02:10:24.014Z,12.20
2019-03-26T02:13:04.018Z,16.27
2019-03-26T02:15:43.962Z,13.67
2019-03-26T02:18:24.009Z,11.60
2019-03-26T02:21:03.880Z,12.57
2019-03-26T02:23:43.958Z,14.90
2019-03-26T02:26:23.958Z,11.60
2019-03-26T02:29:03.953Z,12.03
2019-03-26T02:31:43.936Z,13.63
2019-03-26T02:34:24.165Z,13.83
2019-03-26T02:37:04.161Z,9.53
2019-03-26T02:39:44.337Z,19.70
2019-03-26T02:42:24.372Z,9.77
2019-03-26T02:45:04.540Z,13.43
2019-03-26T02:47:44.674Z,13.50
2019-03-26T02:50:24.798Z,13.10
2019-03-26T02:53:08.487Z,10.10
2019-03-26T02:55:47.109Z,12.67
2019-03-26T02:58:27.112Z,9.63
2019-03-26T03:01:07.094Z,8.77
2019-03-26T03:03:47.277Z,12.27
2019-03-26T03:06:27.417Z,12.33
2019-03-26T03:09:07.608Z,17.57
2019-03-26T03:11:47.829Z,11.23
2019-03-26T03:14:27.914Z,10.67
2019-03-26T03:17:07.976Z,12.17
2019-03-26T03:19:48.001Z,15.47
2019-03-26T03:22:28.533Z,17.63
2019-03-26T03:25:08.437Z,12.30
2019-03-26T03:27:48.535Z,13.77
2019-03-26T03:30:28.289Z,14.23
2019-03-26T03:33:08.382Z,11.20
2019-03-26T03:35:52.612Z,15.97
2019-03-26T03:38:30.443Z,10.20
2019-03-26T03:41:10.335Z,14.23
2019-03-26T03:43:50.329Z,13.50
2019-03-26T03:46:30.373Z,19.80
2019-03-26T03:49:10.460Z,15.47
2019-03-26T03:51:50.452Z,14.30
2019-03-26T03:54:30.658Z,12.60
2019-03-26T03:57:10.578Z,14.57
2019-03-26T03:59:50.444Z,11.33
2019-03-26T04:02:30.439Z,20.17
2019-03-26T04:05:10.693Z,11.10
2019-03-26T04:07:50.702Z,15.40
2019-03-26T04:10:30.819Z,13.80
2019-03-26T04:13:10.866Z,14.97
2019-03-26T04:15:50.813Z,14.43
2019-03-26T04:18:30.735Z,10.43
2019-03-26T04:21:10.675Z,11.57
2019-03-26T04:23:50.632Z,15.10
2019-03-26T04:26:30.636Z,13.47
2019-03-26T04:29:10.676Z,13.13
2019-03-26T04:31:50.888Z,12.47
2019-03-26T04:34:30.970Z,9.50
2019-03-26T04:37:11.180Z,17.87
2019-03-26T04:39:50.954Z,15.93
2019-03-26T04:42:30.978Z,18.07
2019-03-26T04:45:10.976Z,17.13
2019-03-26T04:47:51.188Z,17.53
2019-03-26T04:50:31.072Z,11.73
2019-03-26T04:53:11.359Z,20.97
2019-03-26T04:55:51.180Z,14.27
2019-03-26T04:58:31.287Z,15.97
2019-03-26T05:01:11.164Z,18.53
2019-03-26T05:03:51.328Z,15.27
2019-03-26T05:06:37.917Z,11.47
2019-03-26T05:09:13.485Z,13.77
2019-03-26T05:11:53.489Z,11.90
2019-03-26T05:14:33.541Z,15.70
2019-03-26T05:17:13.324Z,10.77
2019-03-26T05:19:53.396Z,16.63
2019-03-26T05:22:33.342Z,11.33
2019-03-26T05:25:13.302Z,11.57
2019-03-26T05:27:53.182Z,18.87
2019-03-26T05:30:33.323Z,13.40
2019-03-26T05:33:13.135Z,10.27
2019-03-26T05:35:53.193Z,12.77
2019-03-26T05:38:33.224Z,11.33
2019-03-26T05:41:13.224Z,15.53
2019-03-26T05:43:53.224Z,9.93
2019-03-26T05:46:33.254Z,11.50
2019-03-26T05:49:13.319Z,8.80
2019-03-26T05:51:53.400Z,16.70
2019-03-26T05:54:33.411Z,15.10
2019-03-26T05:57:13.381Z,13.50
2019-03-26T05:59:53.446Z,12.33
2019-03-26T06:02:33.455Z,13.80
2019-03-26T06:05:13.619Z,18.33
2019-03-26T06:07:53.445Z,13.97
2019-03-26T06:10:33.486Z,10.10
2019-03-26T06:13:13.578Z,14.70
2019-03-26T06:15:53.764Z,12.70
2019-03-26T06:18:33.791Z,13.27
2019-03-26T06:21:13.777Z,16.40
2019-03-26T06:23:54.010Z,12.13
2019-03-26T06:26:33.836Z,12.93
2019-03-26T06:29:13.630Z,13.93
2019-03-26T06:31:53.481Z,12.43
2019-03-26T06:34:33.639Z,12.33
2019-03-26T06:37:18.164Z,13.47
2019-03-26T06:39:58.366Z,16.70
2019-03-26T06:42:37.803Z,16.77
2019-03-26T06:45:17.819Z,12.87
2019-03-26T06:47:57.724Z,14.07
2019-03-26T06:50:37.930Z,17.87
2019-03-26T06:53:17.723Z,17.00
2019-03-26T06:55:57.665Z,10.10
2019-03-26T06:58:37.559Z,17.43
2019-03-26T07:01:17.759Z,17.53
2019-03-26T07:03:57.787Z,10.80
2019-03-26T07:06:37.788Z,12.93
2019-03-26T07:09:17.729Z,13.93
2019-03-26T07:11:57.816Z,8.57
2019-03-26T07:14:38.095Z,12.30
2019-03-26T07:17:18.133Z,11.03
2019-03-26T07:19:58.127Z,15.27
2019-03-26T07:22:38.113Z,16.50
2019-03-26T07:25:17.962Z,19.10
2019-03-26T07:27:58.020Z,13.07
2019-03-26T07:30:37.865Z,9.77
2019-03-26T07:33:18.059Z,13.40
2019-03-26T07:35:58.027Z,8.90
2019-03-26T07:38:38.178Z,12.67
2019-03-26T07:41:17.908Z,10.23
2019-03-26T07:43:58.184Z,9.73
2019-03-26T07:46:37.948Z,9.57
2019-03-26T07:49:17.869Z,14.70
2019-03-26T07:51:58.003Z,14.40
2019-03-26T07:54:38.154Z,10.30
2019-03-26T07:57:18.000Z,12.70
2019-03-26T07:59:57.921Z,13.27
2019-03-26T08:02:37.798Z,12.83
2019-03-26T08:05:29.345Z,12.30
2019-03-26T08:07:59.920Z,10.30
2019-03-26T08:10:39.919Z,9.27
2019-03-26T08:13:19.994Z,9.50
2019-03-26T08:15:59.996Z,10.80
2019-03-26T08:18:39.998Z,8.10
2019-03-26T08:21:20.076Z,11.73
2019-03-26T08:23:59.966Z,6.87
2019-03-26T08:26:39.802Z,6.37
2019-03-26T08:29:19.901Z,7.27
2019-03-26T08:31:59.908Z,9.60
2019-03-26T08:34:39.927Z,13.23
2019-03-26T08:37:20.070Z,8.60
2019-03-26T08:39:59.873Z,6.57
2019-03-26T08:42:40.107Z,8.73
2019-03-26T08:45:20.160Z,10.17
2019-03-26T08:48:00.282Z,8.63
2019-03-26T08:50:40.388Z,11.17
2019-03-26T08:53:20.281Z,8.63
2019-03-26T08:56:00.276Z,6.07
2019-03-26T08:58:39.916Z,8.57
2019-03-26T09:01:20.261Z,5.03
2019-03-26T09:04:00.255Z,9.03
2019-03-26T09:06:40.197Z,9.77
2019-03-26T09:09:20.133Z,7.10
2019-03-26T09:12:00.031Z,12.60
2019-03-26T09:14:40.074Z,9.10
2019-03-26T09:17:20.164Z,8.20
2019-03-26T09:19:59.840Z,7.70
2019-03-26T09:22:39.804Z,8.07
2019-03-26T09:25:19.703Z,9.03
2019-03-26T09:27:59.812Z,8.80
2019-03-26T09:30:40.091Z,14.23
2019-03-26T09:33:20.048Z,13.50
2019-03-26T09:35:59.907Z,8.70
2019-03-26T09:38:40.057Z,10.23
2019-03-26T09:41:20.001Z,8.00
2019-03-26T09:43:59.956Z,6.87
2019-03-26T09:46:39.860Z,6.37
2019-03-26T09:49:19.722Z,7.40
2019-03-26T09:51:59.850Z,6.87
2019-03-26T09:54:39.997Z,11.33
2019-03-26T09:57:19.986Z,9.73
2019-03-26T10:00:00.041Z,5.17
2019-03-26T10:02:42.810Z,8.97
2019-03-26T10:05:22.056Z,7.87
2019-03-26T10:08:01.682Z,7.07
2019-03-26T10:10:41.852Z,11.07
2019-03-26T10:13:21.882Z,8.77
2019-03-26T10:16:02.172Z,10.77
2019-03-26T10:18:42.193Z,10.67
2019-03-26T10:21:22.193Z,8.40
2019-03-26T10:24:02.264Z,7.93
2019-03-26T10:26:42.453Z,10.20
2019-03-26T10:29:30.145Z,8.43
2019-03-26T10:32:04.202Z,10.43
2019-03-26T10:34:44.212Z,7.87
2019-03-26T10:37:24.317Z,8.00
2019-03-26T10:40:04.148Z,9.33
2019-03-26T10:42:44.258Z,7.77
2019-03-26T10:45:24.093Z,6.07
2019-03-26T10:48:04.347Z,6.37
2019-03-26T10:50:44.440Z,10.27
2019-03-26T10:53:24.701Z,9.37
2019-03-26T10:56:04.778Z,9.60
2019-03-26T10:58:44.960Z,7.60
2019-03-26T11:01:25.048Z,7.13
2019-03-26T11:04:07.703Z,8.03
2019-03-26T11:06:47.369Z,5.50
2019-03-26T11:09:27.538Z,7.10
2019-03-26T11:12:07.397Z,8.73
2019-03-26T11:14:47.672Z,8.97
2019-03-26T11:17:27.590Z,6.03
2019-03-26T11:20:07.564Z,5.33
2019-03-26T11:22:47.466Z,7.77
2019-03-26T11:25:27.725Z,11.73
2019-03-26T11:28:07.865Z,5.77
2019-03-26T11:30:47.964Z,9.97
2019-03-26T11:33:27.791Z,5.93
2019-03-26T11:36:07.786Z,10.57
2019-03-26T11:38:47.544Z,6.00
2019-03-26T11:41:27.517Z,8.17
2019-03-26T11:44:07.763Z,5.90
2019-03-26T11:46:47.684Z,8.33
2019-03-26T11:49:27.527Z,6.87
2019-03-26T11:52:07.326Z,7.70
2019-03-26T11:54:47.302Z,4.80
2019-03-26T11:57:27.440Z,5.80
2019-03-26T12:00:07.541Z,6.47
2019-03-26T12:02:47.381Z,5.03
2019-03-26T12:05:27.437Z,5.53
2019-03-26T12:08:07.468Z,3.43
2019-03-26T12:10:47.592Z,6.67
2019-03-26T12:13:27.583Z,8.27
2019-03-26T12:16:07.633Z,4.67
2019-03-26T12:18:48.066Z,6.17
2019-03-26T12:21:27.998Z,7.07
2019-03-26T12:24:07.923Z,4.53
2019-03-26T12:26:48.087Z,2.93
2019-03-26T12:29:28.249Z,6.70
2019-03-26T12:32:08.229Z,5.53
2019-03-26T12:34:48.300Z,3.90
2019-03-26T12:37:28.397Z,3.60
2019-03-26T12:40:08.484Z,4.33
2019-03-26T12:42:48.680Z,5.80
2019-03-26T12:45:28.593Z,5.33
2019-03-26T12:48:08.527Z,8.17
2019-03-26T12:50:48.675Z,3.87
2019-03-26T12:53:28.553Z,5.80
2019-03-26T12:56:08.611Z,2.57
2019-03-26T12:58:48.747Z,4.80
2019-03-26T13:01:28.814Z,5.70
2019-03-26T13:04:12.798Z,5.73
2019-03-26T13:06:51.201Z,2.70
2019-03-26T13:09:31.165Z,8.80
2019-03-26T13:12:11.185Z,6.03
2019-03-26T13:14:51.367Z,6.60
2019-03-26T13:17:31.424Z,6.40
2019-03-26T13:20:11.527Z,5.87
2019-03-26T13:22:51.760Z,7.43
2019-03-26T13:25:31.544Z,6.40
2019-03-26T13:28:11.369Z,10.17
2019-03-26T13:30:51.351Z,6.80
2019-03-26T13:33:31.391Z,4.93
2019-03-26T13:36:11.368Z,7.47
2019-03-26T13:38:51.529Z,8.63
2019-03-26T13:41:31.361Z,6.87
2019-03-26T13:44:11.501Z,4.57
2019-03-26T13:46:51.420Z,5.07
2019-03-26T13:49:31.641Z,4.53
2019-03-26T13:52:11.715Z,3.67
2019-03-26T13:54:51.720Z,4.50
2019-03-26T13:57:31.540Z,4.60
2019-03-26T14:00:11.587Z,3.57
2019-03-26T14:02:51.653Z,2.87
2019-03-26T14:05:31.748Z,8.27
2019-03-26T14:08:11.560Z,3.10
2019-03-26T14:10:51.441Z,5.53
2019-03-26T14:13:31.304Z,6.10
2019-03-26T14:16:11.370Z,4.23
2019-03-26T14:18:51.312Z,3.20
2019-03-26T14:21:31.458Z,3.53
2019-03-26T14:24:13.281Z,3.20
2019-03-26T14:26:53.243Z,2.43
2019-03-26T14:29:33.374Z,3.67
2019-03-26T14:32:13.512Z,2.63
2019-03-26T14:34:53.307Z,4.20
2019-03-26T14:37:33.317Z,5.47
2019-03-26T14:40:13.388Z,2.13
2019-03-26T14:42:53.304Z,4.33
2019-03-26T14:45:33.129Z,4.60
2019-03-26T14:48:13.216Z,3.47
2019-03-26T14:50:53.176Z,7.27
2019-03-26T14:53:33.213Z,2.73
2019-03-26T14:56:13.185Z,3.80
2019-03-26T14:58:53.302Z,3.17
2019-03-26T15:01:33.120Z,3.10
2019-03-26T15:04:13.145Z,2.07
2019-03-26T15:06:53.230Z,3.73
2019-03-26T15:09:33.265Z,3.97
2019-03-26T15:12:13.202Z,4.40
2019-03-26T15:14:53.291Z,1.93
2019-03-26T15:17:33.333Z,4.97
2019-03-26T15:20:13.252Z,2.00
2019-03-26T15:22:53.376Z,6.00
2019-03-26T15:25:33.378Z,2.73
2019-03-26T15:28:13.408Z,2.27
2019-03-26T15:30:53.429Z,2.60
2019-03-26T15:33:33.945Z,3.93
2019-03-26T15:36:14.204Z,4.00
2019-03-26T15:38:54.296Z,3.93
2019-03-26T15:41:34.201Z,3.90
2019-03-26T15:44:14.264Z,4.47
2019-03-26T15:46:54.176Z,4.90
2019-03-26T15:49:34.302Z,8.07
2019-03-26T15:52:14.226Z,2.20
2019-03-26T15:54:54.659Z,4.70
2019-03-26T15:57:34.429Z,5.63
2019-03-26T16:00:14.472Z,7.43
2019-03-26T16:02:54.501Z,7.40
2019-03-26T16:05:34.576Z,5.83
2019-03-26T16:08:14.532Z,5.77
2019-03-26T16:10:54.573Z,5.47
2019-03-26T16:13:35.955Z,5.27
2019-03-26T16:16:16.374Z,6.13
2019-03-26T16:18:56.138Z,6.73
2019-03-26T16:21:36.258Z,5.40
2019-03-26T16:24:16.295Z,5.47
2019-03-26T16:26:56.242Z,9.40
2019-03-26T16:29:36.409Z,7.07
2019-03-26T16:32:16.380Z,6.47
2019-03-26T16:34:56.164Z,5.80
2019-03-26T16:37:36.231Z,4.50
2019-03-26T16:40:16.093Z,9.00
2019-03-26T16:42:56.041Z,5.27
2019-03-26T16:45:35.911Z,6.47
2019-03-26T16:48:16.024Z,7.20
2019-03-26T16:50:56.065Z,7.73
2019-03-26T16:53:36.084Z,10.47
2019-03-26T16:56:16.185Z,6.10
2019-03-26T16:58:56.350Z,9.90
2019-03-26T17:01:36.609Z,6.83
2019-03-26T17:04:16.588Z,9.03
2019-03-26T17:06:56.508Z,8.57
2019-03-26T17:09:36.463Z,8.73
2019-03-26T17:12:16.451Z,9.37
2019-03-26T17:14:56.388Z,8.27
2019-03-26T17:17:36.527Z,7.87
2019-03-26T17:20:16.520Z,7.27
2019-03-26T17:22:56.464Z,6.87
2019-03-26T17:25:36.577Z,10.67
2019-03-26T17:28:16.534Z,7.97
2019-03-26T17:30:56.451Z,6.93
2019-03-26T17:33:36.493Z,9.97
2019-03-26T17:36:16.468Z,8.13
2019-03-26T17:38:56.471Z,11.10
2019-03-26T17:41:36.730Z,9.40
2019-03-26T17:44:16.816Z,9.70
2019-03-26T17:46:56.998Z,11.17
2019-03-26T17:49:36.907Z,9.00
2019-03-26T17:52:17.195Z,12.50
2019-03-26T17:54:57.197Z,7.33
2019-03-26T17:57:37.099Z,5.67
2019-03-26T18:00:18.560Z,6.47
2019-03-26T18:02:58.248Z,4.17
2019-03-26T18:05:38.172Z,2.63
2019-03-26T18:08:18.261Z,10.57
2019-03-26T18:10:58.541Z,6.57
2019-03-26T18:13:38.581Z,6.30
2019-03-26T18:16:18.816Z,4.73
2019-03-26T18:18:59.102Z,5.80
2019-03-26T18:21:50.992Z,9.40
2019-03-26T18:24:21.288Z,8.10
2019-03-26T18:27:01.198Z,12.40
2019-03-26T18:29:41.241Z,7.67
2019-03-26T18:32:21.085Z,14.83
2019-03-26T18:35:01.391Z,11.53
2019-03-26T18:37:41.045Z,13.20
2019-03-26T18:40:21.041Z,9.27
2019-03-26T18:43:01.339Z,10.80
2019-03-26T18:45:41.765Z,18.00
2019-03-26T18:48:21.768Z,13.27
2019-03-26T18:51:01.596Z,10.67
2019-03-26T18:53:41.676Z,11.10
2019-03-26T18:56:21.630Z,10.13
2019-03-26T18:59:01.523Z,11.17
2019-03-26T19:01:41.818Z,11.50
2019-03-26T19:04:21.668Z,11.40
2019-03-26T19:07:01.531Z,10.83
2019-03-26T19:09:41.818Z,8.87
2019-03-26T19:12:21.745Z,7.90
2019-03-26T19:15:01.741Z,14.50
2019-03-26T19:17:42.038Z,9.73
2019-03-26T19:20:22.260Z,6.67
2019-03-26T19:23:02.092Z,6.10
2019-03-26T19:25:42.213Z,6.97
2019-03-26T19:28:22.475Z,10.30
2019-03-26T19:31:02.474Z,6.90
2019-03-26T19:33:42.628Z,8.93
2019-03-26T19:36:22.762Z,6.40
2019-03-26T19:39:06.496Z,5.53
2019-03-26T19:41:45.804Z,6.03
2019-03-26T19:44:25.769Z,7.60
2019-03-26T19:47:05.550Z,9.53
2019-03-26T19:49:45.522Z,11.37
2019-03-26T19:52:25.483Z,7.80
2019-03-26T19:55:05.283Z,10.23
2019-03-26T19:57:45.425Z,7.53
2019-03-26T20:00:26.956Z,7.80
2019-03-26T20:03:07.633Z,10.70
2019-03-26T20:05:48.359Z,9.50
2019-03-26T20:08:28.878Z,10.97
2019-03-26T20:11:08.997Z,6.53
2019-03-26T20:13:49.289Z,10.43
2019-03-26T20:16:41.279Z,9.73
2019-03-26T20:19:11.765Z,6.70
2019-03-26T20:21:51.773Z,7.97
2019-03-26T20:24:31.756Z,10.23
2019-03-26T20:27:11.729Z,7.67
2019-03-26T20:29:51.904Z,8.70
2019-03-26T20:35:15.907Z,12.40
2019-03-26T20:37:56.710Z,12.27
2019-03-26T20:40:36.604Z,8.73
2019-03-26T20:43:16.546Z,10.27
2019-03-26T20:45:56.611Z,9.97
2019-03-26T20:48:36.641Z,11.37
2019-03-26T20:51:16.674Z,10.23
2019-03-26T20:53:56.520Z,6.87
2019-03-26T20:56:36.567Z,11.43
2019-03-26T20:59:16.689Z,7.47
2019-03-26T21:01:56.687Z,11.63
2019-03-26T21:04:36.693Z,11.17
2019-03-26T21:07:16.706Z,10.60
2019-03-26T21:09:56.747Z,9.27
2019-03-26T21:12:36.907Z,8.30
2019-03-26T21:15:16.748Z,9.90
2019-03-26T21:17:56.856Z,9.07
2019-03-26T21:20:37.053Z,11.90
2019-03-26T21:23:17.226Z,19.20
2019-03-26T21:25:57.016Z,8.20
2019-03-26T21:28:37.408Z,11.10
2019-03-26T21:31:17.321Z,11.03
2019-03-26T21:33:57.652Z,8.73
2019-03-26T21:36:37.628Z,12.07
2019-03-26T21:39:17.424Z,14.03
2019-03-26T21:41:57.516Z,11.57
2019-03-26T21:44:37.507Z,7.67
2019-03-26T21:47:17.529Z,10.60
2019-03-26T21:49:57.577Z,10.13
2019-03-26T21:52:37.447Z,9.57
2019-03-26T21:55:17.435Z,8.60
2019-03-26T21:57:57.490Z,10.13
2019-03-26T22:00:37.540Z,8.67
2019-03-26T22:03:17.433Z,7.90
2019-03-26T22:05:57.672Z,8.80
2019-03-26T22:08:37.723Z,8.33
2019-03-26T22:11:17.648Z,9.10
2019-03-26T22:13:57.874Z,7.77
2019-03-26T22:16:37.842Z,7.30
2019-03-26T22:19:27.918Z,6.03
2019-03-26T22:21:59.997Z,9.40
2019-03-26T22:24:40.118Z,11.40
2019-03-26T22:27:20.264Z,16.13
2019-03-26T22:30:00.341Z,7.53
2019-03-26T22:32:40.069Z,10.63
2019-03-26T22:35:20.220Z,11.00
2019-03-26T22:38:00.454Z,12.80
2019-03-26T22:40:40.484Z,6.73
2019-03-26T22:43:20.523Z,11.33
2019-03-26T22:46:00.348Z,12.03
2019-03-26T22:48:40.633Z,13.70
2019-03-26T22:51:20.716Z,13.37
2019-03-26T22:54:00.519Z,10.37
2019-03-26T22:56:40.445Z,8.90
2019-03-26T22:59:20.655Z,9.43
2019-03-26T23:02:00.581Z,8.80
2019-03-26T23:04:40.499Z,11.20
2019-03-26T23:07:20.552Z,15.40
2019-03-26T23:10:00.516Z,9.83
2019-03-26T23:12:40.461Z,11.40
2019-03-26T23:15:20.403Z,13.83
2019-03-26T23:18:00.623Z,9.50
2019-03-26T23:20:40.612Z,7.83
2019-03-26T23:23:20.554Z,12.13
2019-03-26T23:26:00.428Z,8.20
2019-03-26T23:28:40.436Z,12.00
2019-03-26T23:31:20.522Z,12.80
2019-03-26T23:34:00.642Z,10.70
2019-03-26T23:36:40.513Z,10.47
2019-03-26T23:39:20.525Z,10.90
2019-03-26T23:42:00.472Z,11.70
2019-03-26T23:44:40.443Z,8.30
2019-03-26T23:47:20.463Z,12.00
2019-03-26T23:50:00.775Z,10.30
2019-03-26T23:52:40.707Z,16.67
2019-03-26T23:55:20.710Z,12.43
2019-03-26T23:58:00.793Z,10.63
